sensor_id;sensor_type;location;lat;lon;timestamp;P1;durP1;ratioP1;P2;durP2;ratioP2
23346;SDS011;36852;45.466;11.066;2022-11-25T00:01:39;27.73;;;18.27;;
23346;SDS011;36852;45.466;11.066;2022-11-25T00:04:07;27.07;;;18.52;;
23346;SDS011;36852;45.466;11.066;2022-11-25T00:06:35;29.10;;;18.92;;
23346;SDS011;36852;45.466;11.066;2022-11-25T00:09:05;27.37;;;19.17;;
23346;SDS011;36852;45.466;11.066;2022-11-25T00:11:36;29.77;;;20.70;;
23346;SDS011;36852;45.466;11.066;2022-11-25T00:14:06;31.07;;;20.90;;
23346;SDS011;36852;45.466;11.066;2022-11-25T00:16:36;28.95;;;19.05;;
23346;SDS011;36852;45.466;11.066;2022-11-25T00:19:08;32.25;;;18.70;;
23346;SDS011;36852;45.466;11.066;2022-11-25T00:21:37;27.60;;;18.15;;
23346;SDS011;36852;45.466;11.066;2022-11-25T00:24:05;24.43;;;15.93;;
23346;SDS011;36852;45.466;11.066;2022-11-25T00:26:34;22.95;;;15.63;;
23346;SDS011;36852;45.466;11.066;2022-11-25T00:29:03;27.65;;;15.95;;
23346;SDS011;36852;45.466;11.066;2022-11-25T00:31:35;22.50;;;14.38;;
23346;SDS011;36852;45.466;11.066;2022-11-25T00:34:05;24.20;;;16.25;;
23346;SDS011;36852;45.466;11.066;2022-11-25T00:36:34;27.98;;;18.42;;
23346;SDS011;36852;45.466;11.066;2022-11-25T00:39:04;29.18;;;18.32;;
23346;SDS011;36852;45.466;11.066;2022-11-25T00:41:34;36.83;;;21.12;;
23346;SDS011;36852;45.466;11.066;2022-11-25T00:44:21;35.65;;;21.20;;
23346;SDS011;36852;45.466;11.066;2022-11-25T00:47:08;34.18;;;19.62;;
23346;SDS011;36852;45.466;11.066;2022-11-25T00:49:38;43.90;;;24.23;;
23346;SDS011;36852;45.466;11.066;2022-11-25T00:52:08;39.40;;;23.50;;
23346;SDS011;36852;45.466;11.066;2022-11-25T00:54:38;38.15;;;22.58;;
23346;SDS011;36852;45.466;11.066;2022-11-25T00:57:11;32.75;;;21.30;;
23346;SDS011;36852;45.466;11.066;2022-11-25T00:59:40;31.02;;;17.80;;
23346;SDS011;36852;45.466;11.066;2022-11-25T01:02:08;27.13;;;17.02;;
23346;SDS011;36852;45.466;11.066;2022-11-25T01:04:37;26.40;;;16.55;;
23346;SDS011;36852;45.466;11.066;2022-11-25T01:07:05;26.40;;;18.57;;
23346;SDS011;36852;45.466;11.066;2022-11-25T01:09:34;25.55;;;16.73;;
23346;SDS011;36852;45.466;11.066;2022-11-25T01:12:06;25.08;;;15.15;;
23346;SDS011;36852;45.466;11.066;2022-11-25T01:14:34;23.15;;;14.45;;
23346;SDS011;36852;45.466;11.066;2022-11-25T01:17:03;36.50;;;22.60;;
23346;SDS011;36852;45.466;11.066;2022-11-25T01:19:32;35.13;;;21.12;;
23346;SDS011;36852;45.466;11.066;2022-11-25T01:22:00;25.77;;;18.40;;
23346;SDS011;36852;45.466;11.066;2022-11-25T01:24:29;34.73;;;22.22;;
23346;SDS011;36852;45.466;11.066;2022-11-25T01:26:57;44.70;;;24.35;;
23346;SDS011;36852;45.466;11.066;2022-11-25T01:29:25;43.58;;;23.60;;
23346;SDS011;36852;45.466;11.066;2022-11-25T01:31:54;39.00;;;23.15;;
23346;SDS011;36852;45.466;11.066;2022-11-25T01:34:24;47.78;;;26.73;;
23346;SDS011;36852;45.466;11.066;2022-11-25T01:36:55;49.38;;;27.27;;
23346;SDS011;36852;45.466;11.066;2022-11-25T01:39:23;45.98;;;28.23;;
23346;SDS011;36852;45.466;11.066;2022-11-25T01:41:54;45.90;;;27.00;;
23346;SDS011;36852;45.466;11.066;2022-11-25T01:44:22;45.52;;;26.50;;
23346;SDS011;36852;45.466;11.066;2022-11-25T01:46:54;42.17;;;23.27;;
23346;SDS011;36852;45.466;11.066;2022-11-25T01:49:35;36.48;;;22.77;;
23346;SDS011;36852;45.466;11.066;2022-11-25T01:52:13;36.33;;;22.70;;
23346;SDS011;36852;45.466;11.066;2022-11-25T01:54:53;34.83;;;20.82;;
23346;SDS011;36852;45.466;11.066;2022-11-25T01:57:25;35.90;;;20.60;;
23346;SDS011;36852;45.466;11.066;2022-11-25T01:59:56;31.82;;;21.02;;
23346;SDS011;36852;45.466;11.066;2022-11-25T02:02:28;31.42;;;19.87;;
23346;SDS011;36852;45.466;11.066;2022-11-25T02:04:57;28.65;;;19.20;;
23346;SDS011;36852;45.466;11.066;2022-11-25T02:07:31;23.22;;;15.78;;
23346;SDS011;36852;45.466;11.066;2022-11-25T02:10:06;24.10;;;16.05;;
23346;SDS011;36852;45.466;11.066;2022-11-25T02:12:39;24.63;;;15.85;;
23346;SDS011;36852;45.466;11.066;2022-11-25T02:15:09;24.50;;;15.88;;
23346;SDS011;36852;45.466;11.066;2022-11-25T02:17:38;32.80;;;18.70;;
23346;SDS011;36852;45.466;11.066;2022-11-25T02:20:11;31.50;;;18.35;;
23346;SDS011;36852;45.466;11.066;2022-11-25T02:25:22;30.65;;;18.70;;
23346;SDS011;36852;45.466;11.066;2022-11-25T02:27:54;28.00;;;16.73;;
23346;SDS011;36852;45.466;11.066;2022-11-25T02:30:23;27.15;;;17.40;;
23346;SDS011;36852;45.466;11.066;2022-11-25T02:32:52;22.10;;;14.43;;
23346;SDS011;36852;45.466;11.066;2022-11-25T02:35:24;20.62;;;14.63;;
23346;SDS011;36852;45.466;11.066;2022-11-25T02:37:54;22.93;;;14.05;;
23346;SDS011;36852;45.466;11.066;2022-11-25T02:40:26;22.50;;;13.88;;
23346;SDS011;36852;45.466;11.066;2022-11-25T02:42:57;20.40;;;13.70;;
23346;SDS011;36852;45.466;11.066;2022-11-25T02:48:13;22.73;;;13.15;;
23346;SDS011;36852;45.466;11.066;2022-11-25T02:50:42;21.02;;;13.15;;
23346;SDS011;36852;45.466;11.066;2022-11-25T02:53:10;19.45;;;12.78;;
23346;SDS011;36852;45.466;11.066;2022-11-25T02:55:38;19.20;;;13.48;;
23346;SDS011;36852;45.466;11.066;2022-11-25T02:58:06;20.30;;;14.05;;
23346;SDS011;36852;45.466;11.066;2022-11-25T03:00:34;23.02;;;14.05;;
23346;SDS011;36852;45.466;11.066;2022-11-25T03:03:02;22.93;;;14.23;;
23346;SDS011;36852;45.466;11.066;2022-11-25T03:05:31;24.37;;;15.63;;
23346;SDS011;36852;45.466;11.066;2022-11-25T03:08:00;25.43;;;15.25;;
23346;SDS011;36852;45.466;11.066;2022-11-25T03:10:28;21.17;;;15.10;;
23346;SDS011;36852;45.466;11.066;2022-11-25T03:12:58;28.00;;;15.83;;
23346;SDS011;36852;45.466;11.066;2022-11-25T03:15:27;28.42;;;17.70;;
23346;SDS011;36852;45.466;11.066;2022-11-25T03:17:55;27.15;;;17.77;;
23346;SDS011;36852;45.466;11.066;2022-11-25T03:20:23;24.77;;;15.38;;
23346;SDS011;36852;45.466;11.066;2022-11-25T03:22:52;26.75;;;14.93;;
23346;SDS011;36852;45.466;11.066;2022-11-25T03:25:21;21.25;;;14.43;;
23346;SDS011;36852;45.466;11.066;2022-11-25T03:27:49;18.92;;;13.08;;
23346;SDS011;36852;45.466;11.066;2022-11-25T03:30:21;24.07;;;15.25;;
23346;SDS011;36852;45.466;11.066;2022-11-25T03:32:53;21.95;;;13.78;;
23346;SDS011;36852;45.466;11.066;2022-11-25T03:35:20;22.50;;;14.60;;
23346;SDS011;36852;45.466;11.066;2022-11-25T03:37:49;22.48;;;13.95;;
23346;SDS011;36852;45.466;11.066;2022-11-25T03:40:17;22.70;;;12.82;;
23346;SDS011;36852;45.466;11.066;2022-11-25T03:42:45;21.20;;;13.22;;
23346;SDS011;36852;45.466;11.066;2022-11-25T03:45:14;19.60;;;12.73;;
23346;SDS011;36852;45.466;11.066;2022-11-25T03:47:44;16.60;;;10.50;;
23346;SDS011;36852;45.466;11.066;2022-11-25T03:50:13;16.73;;;11.28;;
23346;SDS011;36852;45.466;11.066;2022-11-25T03:52:42;20.70;;;11.80;;
23346;SDS011;36852;45.466;11.066;2022-11-25T03:55:11;16.82;;;11.20;;
23346;SDS011;36852;45.466;11.066;2022-11-25T03:57:40;18.37;;;11.55;;
23346;SDS011;36852;45.466;11.066;2022-11-25T04:00:11;16.93;;;10.50;;
23346;SDS011;36852;45.466;11.066;2022-11-25T04:02:46;20.17;;;11.18;;
23346;SDS011;36852;45.466;11.066;2022-11-25T04:05:14;17.70;;;12.05;;
23346;SDS011;36852;45.466;11.066;2022-11-25T04:07:42;19.48;;;10.82;;
23346;SDS011;36852;45.466;11.066;2022-11-25T04:10:10;19.02;;;12.15;;
23346;SDS011;36852;45.466;11.066;2022-11-25T04:12:41;19.92;;;11.43;;
23346;SDS011;36852;45.466;11.066;2022-11-25T04:15:19;17.00;;;11.80;;
23346;SDS011;36852;45.466;11.066;2022-11-25T04:17:50;18.62;;;13.45;;
23346;SDS011;36852;45.466;11.066;2022-11-25T04:20:23;21.10;;;12.20;;
23346;SDS011;36852;45.466;11.066;2022-11-25T04:22:53;16.10;;;12.40;;
23346;SDS011;36852;45.466;11.066;2022-11-25T04:25:21;19.95;;;13.28;;
23346;SDS011;36852;45.466;11.066;2022-11-25T04:27:49;19.42;;;12.93;;
23346;SDS011;36852;45.466;11.066;2022-11-25T04:30:19;19.60;;;12.37;;
23346;SDS011;36852;45.466;11.066;2022-11-25T04:32:47;23.45;;;13.58;;
23346;SDS011;36852;45.466;11.066;2022-11-25T04:35:17;25.17;;;14.93;;
23346;SDS011;36852;45.466;11.066;2022-11-25T04:37:46;23.73;;;15.05;;
23346;SDS011;36852;45.466;11.066;2022-11-25T04:40:15;19.90;;;13.60;;
23346;SDS011;36852;45.466;11.066;2022-11-25T04:42:45;23.07;;;14.35;;
23346;SDS011;36852;45.466;11.066;2022-11-25T04:45:16;20.75;;;14.28;;
23346;SDS011;36852;45.466;11.066;2022-11-25T04:47:46;21.25;;;13.88;;
23346;SDS011;36852;45.466;11.066;2022-11-25T04:50:16;20.60;;;13.53;;
23346;SDS011;36852;45.466;11.066;2022-11-25T04:52:47;19.48;;;13.93;;
23346;SDS011;36852;45.466;11.066;2022-11-25T04:58:00;18.50;;;13.15;;
23346;SDS011;36852;45.466;11.066;2022-11-25T05:00:28;20.77;;;14.65;;
23346;SDS011;36852;45.466;11.066;2022-11-25T05:02:56;23.27;;;15.48;;
23346;SDS011;36852;45.466;11.066;2022-11-25T05:05:24;20.82;;;13.98;;
23346;SDS011;36852;45.466;11.066;2022-11-25T05:07:53;22.20;;;14.78;;
23346;SDS011;36852;45.466;11.066;2022-11-25T05:10:22;20.57;;;14.18;;
23346;SDS011;36852;45.466;11.066;2022-11-25T05:12:50;21.15;;;14.05;;
23346;SDS011;36852;45.466;11.066;2022-11-25T05:15:19;22.58;;;13.68;;
23346;SDS011;36852;45.466;11.066;2022-11-25T05:17:47;22.30;;;13.22;;
23346;SDS011;36852;45.466;11.066;2022-11-25T05:20:17;18.85;;;12.28;;
23346;SDS011;36852;45.466;11.066;2022-11-25T05:22:46;17.42;;;11.25;;
23346;SDS011;36852;45.466;11.066;2022-11-25T05:25:17;19.57;;;11.73;;
23346;SDS011;36852;45.466;11.066;2022-11-25T05:27:49;20.25;;;11.70;;
23346;SDS011;36852;45.466;11.066;2022-11-25T05:30:17;20.68;;;12.37;;
23346;SDS011;36852;45.466;11.066;2022-11-25T05:32:46;17.05;;;11.45;;
23346;SDS011;36852;45.466;11.066;2022-11-25T05:35:14;17.00;;;11.55;;
23346;SDS011;36852;45.466;11.066;2022-11-25T05:37:43;16.62;;;10.65;;
23346;SDS011;36852;45.466;11.066;2022-11-25T05:40:11;18.17;;;10.03;;
23346;SDS011;36852;45.466;11.066;2022-11-25T05:42:50;16.90;;;9.65;;
23346;SDS011;36852;45.466;11.066;2022-11-25T05:45:18;18.45;;;9.98;;
23346;SDS011;36852;45.466;11.066;2022-11-25T05:47:47;14.93;;;9.65;;
23346;SDS011;36852;45.466;11.066;2022-11-25T05:50:17;16.00;;;10.20;;
23346;SDS011;36852;45.466;11.066;2022-11-25T05:52:47;15.35;;;10.53;;
23346;SDS011;36852;45.466;11.066;2022-11-25T05:55:16;19.45;;;12.40;;
23346;SDS011;36852;45.466;11.066;2022-11-25T05:57:45;24.65;;;14.15;;
23346;SDS011;36852;45.466;11.066;2022-11-25T06:00:14;25.90;;;16.32;;
23346;SDS011;36852;45.466;11.066;2022-11-25T06:02:48;27.37;;;17.05;;
23346;SDS011;36852;45.466;11.066;2022-11-25T06:05:17;31.50;;;16.90;;
23346;SDS011;36852;45.466;11.066;2022-11-25T06:07:47;24.40;;;15.43;;
23346;SDS011;36852;45.466;11.066;2022-11-25T06:10:15;29.12;;;16.50;;
23346;SDS011;36852;45.466;11.066;2022-11-25T06:12:44;29.10;;;16.70;;
23346;SDS011;36852;45.466;11.066;2022-11-25T06:15:13;36.23;;;20.48;;
23346;SDS011;36852;45.466;11.066;2022-11-25T06:17:44;27.52;;;17.10;;
23346;SDS011;36852;45.466;11.066;2022-11-25T06:20:14;25.68;;;15.18;;
23346;SDS011;36852;45.466;11.066;2022-11-25T06:22:44;23.05;;;13.83;;
23346;SDS011;36852;45.466;11.066;2022-11-25T06:25:13;25.72;;;13.08;;
23346;SDS011;36852;45.466;11.066;2022-11-25T06:27:41;21.33;;;13.45;;
23346;SDS011;36852;45.466;11.066;2022-11-25T06:30:12;23.45;;;13.43;;
23346;SDS011;36852;45.466;11.066;2022-11-25T06:32:43;19.05;;;12.37;;
23346;SDS011;36852;45.466;11.066;2022-11-25T06:35:13;20.27;;;12.47;;
23346;SDS011;36852;45.466;11.066;2022-11-25T06:37:51;23.85;;;13.25;;
23346;SDS011;36852;45.466;11.066;2022-11-25T06:40:19;26.52;;;14.55;;
23346;SDS011;36852;45.466;11.066;2022-11-25T06:42:48;26.50;;;14.38;;
23346;SDS011;36852;45.466;11.066;2022-11-25T06:45:15;27.95;;;16.25;;
23346;SDS011;36852;45.466;11.066;2022-11-25T06:47:44;29.65;;;16.95;;
23346;SDS011;36852;45.466;11.066;2022-11-25T06:50:12;29.52;;;18.15;;
23346;SDS011;36852;45.466;11.066;2022-11-25T06:52:40;24.75;;;16.87;;
23346;SDS011;36852;45.466;11.066;2022-11-25T06:55:08;30.05;;;17.95;;
23346;SDS011;36852;45.466;11.066;2022-11-25T06:57:36;29.55;;;15.72;;
23346;SDS011;36852;45.466;11.066;2022-11-25T07:00:06;26.68;;;16.20;;
23346;SDS011;36852;45.466;11.066;2022-11-25T07:02:40;25.35;;;14.23;;
23346;SDS011;36852;45.466;11.066;2022-11-25T07:05:10;24.00;;;12.68;;
23346;SDS011;36852;45.466;11.066;2022-11-25T07:07:39;24.57;;;12.23;;
23346;SDS011;36852;45.466;11.066;2022-11-25T07:10:08;19.98;;;11.57;;
23346;SDS011;36852;45.466;11.066;2022-11-25T07:12:36;20.80;;;12.60;;
23346;SDS011;36852;45.466;11.066;2022-11-25T07:15:04;22.85;;;11.68;;
23346;SDS011;36852;45.466;11.066;2022-11-25T07:17:33;20.52;;;12.05;;
23346;SDS011;36852;45.466;11.066;2022-11-25T07:20:02;18.92;;;10.25;;
23346;SDS011;36852;45.466;11.066;2022-11-25T07:22:35;21.80;;;11.55;;
23346;SDS011;36852;45.466;11.066;2022-11-25T07:25:25;20.20;;;11.15;;
23346;SDS011;36852;45.466;11.066;2022-11-25T07:27:54;20.90;;;10.78;;
23346;SDS011;36852;45.466;11.066;2022-11-25T07:30:22;15.85;;;9.38;;
23346;SDS011;36852;45.466;11.066;2022-11-25T07:32:52;16.70;;;9.08;;
23346;SDS011;36852;45.466;11.066;2022-11-25T07:35:21;17.23;;;8.10;;
23346;SDS011;36852;45.466;11.066;2022-11-25T07:37:48;19.32;;;8.95;;
23346;SDS011;36852;45.466;11.066;2022-11-25T07:40:21;20.60;;;10.28;;
23346;SDS011;36852;45.466;11.066;2022-11-25T07:42:49;13.78;;;9.30;;
23346;SDS011;36852;45.466;11.066;2022-11-25T07:45:19;15.25;;;9.38;;
23346;SDS011;36852;45.466;11.066;2022-11-25T07:48:02;15.93;;;8.20;;
23346;SDS011;36852;45.466;11.066;2022-11-25T07:50:31;16.23;;;7.33;;
23346;SDS011;36852;45.466;11.066;2022-11-25T07:52:59;14.47;;;7.78;;
23346;SDS011;36852;45.466;11.066;2022-11-25T07:55:30;20.48;;;8.28;;
23346;SDS011;36852;45.466;11.066;2022-11-25T07:57:58;31.82;;;13.40;;
23346;SDS011;36852;45.466;11.066;2022-11-25T08:00:27;33.70;;;11.80;;
23346;SDS011;36852;45.466;11.066;2022-11-25T08:02:55;25.32;;;12.82;;
23346;SDS011;36852;45.466;11.066;2022-11-25T08:05:23;26.93;;;12.05;;
23346;SDS011;36852;45.466;11.066;2022-11-25T08:07:52;19.80;;;12.23;;
23346;SDS011;36852;45.466;11.066;2022-11-25T08:10:19;20.15;;;11.00;;
23346;SDS011;36852;45.466;11.066;2022-11-25T08:12:48;17.02;;;10.80;;
23346;SDS011;36852;45.466;11.066;2022-11-25T08:15:16;17.73;;;10.70;;
23346;SDS011;36852;45.466;11.066;2022-11-25T08:17:44;20.23;;;11.10;;
23346;SDS011;36852;45.466;11.066;2022-11-25T08:20:12;18.17;;;11.70;;
23346;SDS011;36852;45.466;11.066;2022-11-25T08:22:40;17.42;;;11.53;;
23346;SDS011;36852;45.466;11.066;2022-11-25T08:25:08;21.10;;;12.95;;
23346;SDS011;36852;45.466;11.066;2022-11-25T08:27:36;22.82;;;12.75;;
23346;SDS011;36852;45.466;11.066;2022-11-25T08:30:06;22.35;;;13.83;;
23346;SDS011;36852;45.466;11.066;2022-11-25T08:32:37;24.02;;;14.00;;
23346;SDS011;36852;45.466;11.066;2022-11-25T08:35:07;23.70;;;14.70;;
23346;SDS011;36852;45.466;11.066;2022-11-25T08:37:35;26.12;;;15.50;;
23346;SDS011;36852;45.466;11.066;2022-11-25T08:40:03;26.33;;;14.70;;
23346;SDS011;36852;45.466;11.066;2022-11-25T08:42:31;30.75;;;15.95;;
23346;SDS011;36852;45.466;11.066;2022-11-25T08:45:01;33.50;;;18.32;;
23346;SDS011;36852;45.466;11.066;2022-11-25T08:47:29;25.72;;;15.35;;
23346;SDS011;36852;45.466;11.066;2022-11-25T08:49:57;25.52;;;15.03;;
23346;SDS011;36852;45.466;11.066;2022-11-25T08:52:25;22.42;;;12.82;;
23346;SDS011;36852;45.466;11.066;2022-11-25T08:54:55;19.32;;;12.85;;
23346;SDS011;36852;45.466;11.066;2022-11-25T08:57:23;22.17;;;14.18;;
23346;SDS011;36852;45.466;11.066;2022-11-25T08:59:51;19.73;;;12.30;;
23346;SDS011;36852;45.466;11.066;2022-11-25T09:02:20;17.70;;;12.15;;
23346;SDS011;36852;45.466;11.066;2022-11-25T09:04:48;24.70;;;13.50;;
23346;SDS011;36852;45.466;11.066;2022-11-25T09:07:16;17.12;;;11.48;;
23346;SDS011;36852;45.466;11.066;2022-11-25T09:09:44;19.25;;;11.57;;
23346;SDS011;36852;45.466;11.066;2022-11-25T09:12:12;18.87;;;10.85;;
23346;SDS011;36852;45.466;11.066;2022-11-25T09:14:40;17.37;;;11.03;;
23346;SDS011;36852;45.466;11.066;2022-11-25T09:17:08;18.98;;;10.48;;
23346;SDS011;36852;45.466;11.066;2022-11-25T09:19:37;13.43;;;9.63;;
23346;SDS011;36852;45.466;11.066;2022-11-25T09:22:06;12.53;;;8.60;;
23346;SDS011;36852;45.466;11.066;2022-11-25T09:24:35;15.68;;;7.70;;
23346;SDS011;36852;45.466;11.066;2022-11-25T09:27:02;12.18;;;8.20;;
23346;SDS011;36852;45.466;11.066;2022-11-25T09:29:29;15.08;;;9.23;;
23346;SDS011;36852;45.466;11.066;2022-11-25T09:31:58;15.60;;;10.30;;
23346;SDS011;36852;45.466;11.066;2022-11-25T09:34:26;17.40;;;11.20;;
23346;SDS011;36852;45.466;11.066;2022-11-25T09:36:53;16.70;;;11.12;;
23346;SDS011;36852;45.466;11.066;2022-11-25T09:39:21;20.10;;;11.03;;
23346;SDS011;36852;45.466;11.066;2022-11-25T09:42:05;18.35;;;10.20;;
23346;SDS011;36852;45.466;11.066;2022-11-25T09:48:19;20.65;;;12.18;;
23346;SDS011;36852;45.466;11.066;2022-11-25T09:56:21;19.60;;;13.32;;
23346;SDS011;36852;45.466;11.066;2022-11-25T10:01:59;22.00;;;13.03;;
23346;SDS011;36852;45.466;11.066;2022-11-25T10:04:33;19.75;;;13.18;;
23346;SDS011;36852;45.466;11.066;2022-11-25T10:07:37;24.00;;;13.68;;
23346;SDS011;36852;45.466;11.066;2022-11-25T10:10:13;20.68;;;12.78;;
23346;SDS011;36852;45.466;11.066;2022-11-25T10:12:41;18.25;;;12.60;;
23346;SDS011;36852;45.466;11.066;2022-11-25T10:15:16;17.05;;;10.78;;
23346;SDS011;36852;45.466;11.066;2022-11-25T10:17:44;17.25;;;11.73;;
23346;SDS011;36852;45.466;11.066;2022-11-25T10:20:24;22.42;;;11.25;;
23346;SDS011;36852;45.466;11.066;2022-11-25T10:23:04;18.80;;;12.05;;
23346;SDS011;36852;45.466;11.066;2022-11-25T10:25:44;21.93;;;13.55;;
23346;SDS011;36852;45.466;11.066;2022-11-25T10:28:29;21.27;;;13.53;;
23346;SDS011;36852;45.466;11.066;2022-11-25T10:33:38;19.70;;;12.28;;
23346;SDS011;36852;45.466;11.066;2022-11-25T10:41:45;26.07;;;14.18;;
23346;SDS011;36852;45.466;11.066;2022-11-25T10:44:24;22.70;;;14.73;;
23346;SDS011;36852;45.466;11.066;2022-11-25T10:52:53;26.25;;;13.95;;
23346;SDS011;36852;45.466;11.066;2022-11-25T10:55:25;22.82;;;13.25;;
23346;SDS011;36852;45.466;11.066;2022-11-25T10:57:55;22.85;;;14.00;;
23346;SDS011;36852;45.466;11.066;2022-11-25T11:03:11;22.93;;;14.05;;
23346;SDS011;36852;45.466;11.066;2022-11-25T11:05:44;20.37;;;14.45;;
23346;SDS011;36852;45.466;11.066;2022-11-25T11:11:35;19.48;;;13.75;;
23346;SDS011;36852;45.466;11.066;2022-11-25T11:13:39;21.52;;;14.87;;
23346;SDS011;36852;45.466;11.066;2022-11-25T11:19:30;20.37;;;13.83;;
23346;SDS011;36852;45.466;11.066;2022-11-25T11:21:55;21.55;;;14.20;;
23346;SDS011;36852;45.466;11.066;2022-11-25T11:29:36;21.85;;;14.73;;
23346;SDS011;36852;45.466;11.066;2022-11-25T11:32:06;23.10;;;14.65;;
23346;SDS011;36852;45.466;11.066;2022-11-25T11:43:27;21.37;;;14.93;;
23346;SDS011;36852;45.466;11.066;2022-11-25T11:46:14;19.90;;;13.80;;
23346;SDS011;36852;45.466;11.066;2022-11-25T11:57:03;24.35;;;13.28;;
23346;SDS011;36852;45.466;11.066;2022-11-25T11:59:57;20.92;;;13.20;;
23346;SDS011;36852;45.466;11.066;2022-11-25T12:05:19;19.52;;;13.32;;
23346;SDS011;36852;45.466;11.066;2022-11-25T12:10:29;18.65;;;12.93;;
23346;SDS011;36852;45.466;11.066;2022-11-25T12:16:07;22.93;;;12.90;;
23346;SDS011;36852;45.466;11.066;2022-11-25T12:21:47;19.12;;;12.78;;
23346;SDS011;36852;45.466;11.066;2022-11-25T12:29:46;16.55;;;11.38;;
23346;SDS011;36852;45.466;11.066;2022-11-25T12:37:55;15.83;;;10.55;;
23346;SDS011;36852;45.466;11.066;2022-11-25T12:46:36;18.15;;;9.83;;
23346;SDS011;36852;45.466;11.066;2022-11-25T12:49:12;11.95;;;9.40;;
23346;SDS011;36852;45.466;11.066;2022-11-25T12:55:03;11.22;;;9.40;;
23346;SDS011;36852;45.466;11.066;2022-11-25T13:17:19;11.90;;;9.38;;
23346;SDS011;36852;45.466;11.066;2022-11-25T13:19:48;15.65;;;10.05;;
23346;SDS011;36852;45.466;11.066;2022-11-25T13:24:48;13.03;;;10.00;;
23346;SDS011;36852;45.466;11.066;2022-11-25T13:38:33;8.58;;;6.90;;
23346;SDS011;36852;45.466;11.066;2022-11-25T13:40:55;7.87;;;6.15;;
23346;SDS011;36852;45.466;11.066;2022-11-25T13:43:32;8.50;;;7.00;;
23346;SDS011;36852;45.466;11.066;2022-11-25T13:46:00;13.50;;;7.42;;
23346;SDS011;36852;45.466;11.066;2022-11-25T13:48:29;7.85;;;6.87;;
23346;SDS011;36852;45.466;11.066;2022-11-25T13:51:22;13.83;;;10.53;;
23346;SDS011;36852;45.466;11.066;2022-11-25T13:53:52;9.23;;;7.22;;
23346;SDS011;36852;45.466;11.066;2022-11-25T14:01:51;9.15;;;6.78;;
23346;SDS011;36852;45.466;11.066;2022-11-25T14:04:14;9.35;;;8.03;;
23346;SDS011;36852;45.466;11.066;2022-11-25T14:12:17;10.30;;;8.35;;
23346;SDS011;36852;45.466;11.066;2022-11-25T14:14:54;13.20;;;8.65;;
23346;SDS011;36852;45.466;11.066;2022-11-25T14:25:47;12.58;;;10.15;;
23346;SDS011;36852;45.466;11.066;2022-11-25T14:30:52;15.90;;;10.58;;
23346;SDS011;36852;45.466;11.066;2022-11-25T14:33:31;13.83;;;10.68;;
23346;SDS011;36852;45.466;11.066;2022-11-25T14:36:03;13.32;;;10.32;;
23346;SDS011;36852;45.466;11.066;2022-11-25T14:38:54;14.15;;;10.55;;
23346;SDS011;36852;45.466;11.066;2022-11-25T14:41:20;15.30;;;10.28;;
23346;SDS011;36852;45.466;11.066;2022-11-25T14:44:03;14.23;;;10.15;;
23346;SDS011;36852;45.466;11.066;2022-11-25T14:46:31;14.03;;;10.48;;
23346;SDS011;36852;45.466;11.066;2022-11-25T14:49:00;16.23;;;11.08;;
23346;SDS011;36852;45.466;11.066;2022-11-25T14:51:34;19.07;;;10.80;;
23346;SDS011;36852;45.466;11.066;2022-11-25T14:54:08;17.20;;;10.78;;
23346;SDS011;36852;45.466;11.066;2022-11-25T14:56:36;15.35;;;10.58;;
23346;SDS011;36852;45.466;11.066;2022-11-25T14:59:06;13.78;;;10.80;;
23346;SDS011;36852;45.466;11.066;2022-11-25T15:01:36;18.00;;;11.65;;
23346;SDS011;36852;45.466;11.066;2022-11-25T15:04:09;15.53;;;11.50;;
23346;SDS011;36852;45.466;11.066;2022-11-25T15:06:53;13.98;;;11.35;;
23346;SDS011;36852;45.466;11.066;2022-11-25T15:09:30;13.80;;;10.98;;
23346;SDS011;36852;45.466;11.066;2022-11-25T15:12:01;16.73;;;11.10;;
23346;SDS011;36852;45.466;11.066;2022-11-25T15:14:32;13.32;;;10.98;;
23346;SDS011;36852;45.466;11.066;2022-11-25T15:17:06;13.30;;;10.53;;
23346;SDS011;36852;45.466;11.066;2022-11-25T15:19:35;14.30;;;11.80;;
23346;SDS011;36852;45.466;11.066;2022-11-25T15:22:09;16.37;;;12.70;;
23346;SDS011;36852;45.466;11.066;2022-11-25T15:24:46;18.05;;;11.97;;
23346;SDS011;36852;45.466;11.066;2022-11-25T15:27:18;17.42;;;12.28;;
23346;SDS011;36852;45.466;11.066;2022-11-25T15:29:48;13.45;;;11.88;;
23346;SDS011;36852;45.466;11.066;2022-11-25T15:32:21;13.98;;;11.00;;
23346;SDS011;36852;45.466;11.066;2022-11-25T15:34:48;16.07;;;11.35;;
23346;SDS011;36852;45.466;11.066;2022-11-25T15:37:18;13.28;;;10.50;;
23346;SDS011;36852;45.466;11.066;2022-11-25T15:39:46;17.35;;;11.03;;
23346;SDS011;36852;45.466;11.066;2022-11-25T15:42:23;17.75;;;10.38;;
23346;SDS011;36852;45.466;11.066;2022-11-25T15:44:58;17.27;;;10.68;;
23346;SDS011;36852;45.466;11.066;2022-11-25T15:47:30;18.45;;;11.03;;
23346;SDS011;36852;45.466;11.066;2022-11-25T15:50:02;18.48;;;10.85;;
23346;SDS011;36852;45.466;11.066;2022-11-25T15:52:32;16.87;;;11.43;;
23346;SDS011;36852;45.466;11.066;2022-11-25T15:55:07;12.55;;;9.73;;
23346;SDS011;36852;45.466;11.066;2022-11-25T15:57:49;17.52;;;10.90;;
23346;SDS011;36852;45.466;11.066;2022-11-25T16:00:19;15.58;;;11.08;;
23346;SDS011;36852;45.466;11.066;2022-11-25T16:02:50;17.50;;;11.30;;
23346;SDS011;36852;45.466;11.066;2022-11-25T16:05:27;18.40;;;11.18;;
23346;SDS011;36852;45.466;11.066;2022-11-25T16:08:15;16.17;;;11.08;;
23346;SDS011;36852;45.466;11.066;2022-11-25T16:10:52;13.53;;;10.88;;
23346;SDS011;36852;45.466;11.066;2022-11-25T16:24:21;17.12;;;11.03;;
23346;SDS011;36852;45.466;11.066;2022-11-25T16:27:15;18.87;;;11.00;;
23346;SDS011;36852;45.466;11.066;2022-11-25T16:32:27;15.75;;;11.43;;
23346;SDS011;36852;45.466;11.066;2022-11-25T16:35:05;16.37;;;11.33;;
23346;SDS011;36852;45.466;11.066;2022-11-25T16:37:31;18.37;;;12.55;;
23346;SDS011;36852;45.466;11.066;2022-11-25T16:40:02;17.65;;;11.38;;
23346;SDS011;36852;45.466;11.066;2022-11-25T16:42:31;17.20;;;12.30;;
23346;SDS011;36852;45.466;11.066;2022-11-25T16:45:00;20.43;;;12.70;;
23346;SDS011;36852;45.466;11.066;2022-11-25T16:47:29;19.48;;;11.75;;
23346;SDS011;36852;45.466;11.066;2022-11-25T16:50:00;18.85;;;12.33;;
23346;SDS011;36852;45.466;11.066;2022-11-25T16:52:29;18.00;;;11.88;;
23346;SDS011;36852;45.466;11.066;2022-11-25T16:54:57;17.05;;;11.57;;
23346;SDS011;36852;45.466;11.066;2022-11-25T16:57:26;17.90;;;12.03;;
23346;SDS011;36852;45.466;11.066;2022-11-25T16:59:54;18.67;;;10.20;;
23346;SDS011;36852;45.466;11.066;2022-11-25T17:02:25;17.07;;;10.78;;
23346;SDS011;36852;45.466;11.066;2022-11-25T17:04:53;18.50;;;11.55;;
23346;SDS011;36852;45.466;11.066;2022-11-25T17:07:22;17.40;;;11.22;;
23346;SDS011;36852;45.466;11.066;2022-11-25T17:09:52;19.82;;;11.28;;
23346;SDS011;36852;45.466;11.066;2022-11-25T17:12:21;16.65;;;11.97;;
23346;SDS011;36852;45.466;11.066;2022-11-25T17:14:51;18.37;;;11.57;;
23346;SDS011;36852;45.466;11.066;2022-11-25T17:17:21;19.15;;;11.60;;
23346;SDS011;36852;45.466;11.066;2022-11-25T17:19:51;16.52;;;11.75;;